Time;durP1;ratioP1;P1;durP2;ratioP2;P2;SDS_P1;SDS_P2;PMS_P1;PMS_P2;Temp;Humidity;BMP_temperature;BMP_pressure;BME280_temperature;BME280_humidity;BME280_pressure;Samples;Min_cycle;Max_cycle;Signal;HPM_P1;HPM_P2
2021/04/24 00:02:18;;;;;;;22.65;10.00;;;;;;;-143.98;100.00;68091.63;5088514;28;20036;-79
2021/04/24 00:04:45;;;;;;;19.58;9.93;;;;;;;-143.98;100.00;68091.63;5074090;28;20071;-79
2021/04/24 00:07:13;;;;;;;18.05;9.00;;;;;;;-143.98;100.00;68091.63;5073273;28;20061;-80
2021/04/24 00:09:42;;;;;;;20.95;9.57;;;;;;;-143.98;100.00;68091.63;5073169;28;20065;-80
2021/04/24 00:12:08;;;;;;;26.15;8.88;;;;;;;-143.98;100.00;68091.63;5073810;28;20052;-80
2021/04/24 00:14:35;;;;;;;25.52;9.65;;;;;;;-143.98;100.00;68091.63;5071394;28;20211;-80
2021/04/24 00:17:03;;;;;;;24.73;9.52;;;;;;;-143.98;100.00;68091.63;5071398;28;20064;-80
2021/04/24 00:19:30;;;;;;;21.83;9.00;;;;;;;-143.98;100.00;68091.63;5072807;28;20120;-80
2021/04/24 00:21:56;;;;;;;20.55;8.68;;;;;;;-143.98;100.00;68091.63;5073820;28;20052;-81
2021/04/24 00:24:22;;;;;;;24.13;9.68;;;;;;;-143.98;100.00;68091.63;5065646;28;20071;-81
2021/04/24 00:26:48;;;;;;;27.15;10.52;;;;;;;-143.98;100.00;68091.63;5078733;28;20151;-80
2021/04/24 00:29:15;;;;;;;22.25;9.48;;;;;;;-143.98;100.00;68091.63;5062622;28;20185;-80
2021/04/24 00:31:41;;;;;;;22.75;9.65;;;;;;;-143.98;100.00;68091.63;5081655;28;20545;-81
2021/04/24 00:34:09;;;;;;;20.15;9.60;;;;;;;-143.98;100.00;68091.63;5063924;28;20344;-81
2021/04/24 00:36:37;;;;;;;29.73;9.95;;;;;;;-143.98;100.00;68091.63;5077271;28;20340;-80
2021/04/24 00:39:04;;;;;;;28.73;10.35;;;;;;;-143.98;100.00;68091.63;5060220;28;20400;-81
2021/04/24 00:41:30;;;;;;;31.60;10.88;;;;;;;-143.98;100.00;68091.63;5042200;28;20056;-81
2021/04/24 00:43:57;;;;;;;21.98;9.55;;;;;;;-143.98;100.00;68091.63;5074080;28;20071;-80
2021/04/24 00:46:23;;;;;;;21.08;9.68;;;;;;;-143.98;100.00;68091.63;5080041;28;20058;-80
2021/04/24 00:48:50;;;;;;;26.38;10.15;;;;;;;-143.98;100.00;68091.63;5044378;28;20068;-81
2021/04/24 00:51:24;;;;;;;20.73;9.65;;;;;;;-143.98;100.00;68091.63;5061236;28;20052;-83
2021/04/24 00:53:50;;;;;;;25.50;9.90;;;;;;;-143.98;100.00;68091.63;5075873;28;20095;-80
2021/04/24 00:56:17;;;;;;;28.15;10.25;;;;;;;-143.98;100.00;68091.63;5060878;28;20383;-81
2021/04/24 00:58:43;;;;;;;26.50;11.73;;;;;;;-143.98;100.00;68091.63;5076030;28;20060;-80
2021/04/24 01:01:10;;;;;;;20.45;10.13;;;;;;;-143.98;100.00;68091.63;5076793;28;20304;-80
2021/04/24 01:03:38;;;;;;;28.02;10.65;;;;;;;-143.98;100.00;68091.63;5078283;28;20056;-80
2021/04/24 01:06:06;;;;;;;28.85;10.77;;;;;;;-143.98;100.00;68091.63;5058841;28;20060;-80
2021/04/24 01:08:32;;;;;;;20.60;10.07;;;;;;;-143.98;100.00;68091.63;5076045;28;20060;-80
2021/04/24 01:10:59;;;;;;;20.48;9.43;;;;;;;-143.98;100.00;68091.63;5076775;28;20056;-80
2021/04/24 01:13:26;;;;;;;21.90;10.27;;;;;;;-143.98;100.00;68091.63;5059708;28;20086;-79
2021/04/24 01:15:53;;;;;;;28.42;13.20;;;;;;;-143.98;100.00;68091.63;5045314;28;20197;-80
2021/04/24 01:18:19;;;;;;;33.92;14.07;;;;;;;-143.98;100.00;68091.63;5087703;28;20053;-80
2021/04/24 01:20:47;;;;;;;19.00;9.82;;;;;;;-143.98;100.00;68091.63;5087899;28;20053;-80
2021/04/24 01:23:18;;;;;;;24.60;9.95;;;;;;;-143.98;100.00;68091.63;5068772;28;20056;-80
2021/04/24 01:25:45;;;;;;;24.73;10.73;;;;;;;-143.98;100.00;68091.63;5081486;28;20057;-81
2021/04/24 01:28:11;;;;;;;27.23;12.05;;;;;;;-143.98;100.00;68091.63;5071083;28;20044;-79
2021/04/24 01:30:41;;;;;;;23.20;10.18;;;;;;;-143.98;100.00;68091.63;5075900;28;20048;-80
2021/04/24 01:33:09;;;;;;;30.70;12.30;;;;;;;-143.98;100.00;68091.63;5090156;28;20056;-80
2021/04/24 01:35:36;;;;;;;27.45;12.20;;;;;;;-143.98;100.00;68091.63;5067809;28;20068;-81
2021/04/24 01:38:03;;;;;;;26.13;11.43;;;;;;;-143.98;100.00;68091.63;5082607;28;20067;-81
2021/04/24 01:40:29;;;;;;;36.38;11.02;;;;;;;-143.98;100.00;68091.63;5092104;28;20161;-81
2021/04/24 01:42:56;;;;;;;31.00;10.68;;;;;;;-143.98;100.00;68091.63;5077210;28;20083;-81
2021/04/24 01:45:25;;;;;;;28.85;10.98;;;;;;;-143.98;100.00;68091.63;5076266;28;20091;-80
2021/04/24 01:47:52;;;;;;;25.73;10.43;;;;;;;-143.98;100.00;68091.63;5086263;28;20144;-81
2021/04/24 01:50:26;;;;;;;27.40;10.93;;;;;;;-143.98;100.00;68091.63;5066447;28;20332;-81
2021/04/24 01:53:07;;;;;;;23.20;11.05;;;;;;;-143.98;100.00;68091.63;5066259;28;20064;-81
2021/04/24 01:55:34;;;;;;;32.83;11.23;;;;;;;-143.98;100.00;68091.63;5066344;28;20340;-80
2021/04/24 01:58:04;;;;;;;27.90;10.43;;;;;;;-143.98;100.00;68091.63;5064404;28;20070;-81
2021/04/24 02:00:42;;;;;;;26.80;10.32;;;;;;;-143.98;100.00;68091.63;5080534;28;20052;-80
2021/04/24 02:03:11;;;;;;;29.90;10.80;;;;;;;-143.98;100.00;68091.63;5082258;28;20067;-81
2021/04/24 02:05:38;;;;;;;28.65;10.50;;;;;;;-143.98;100.00;68091.63;5078744;28;20552;-81
2021/04/24 02:08:07;;;;;;;29.88;12.15;;;;;;;-143.98;100.00;68091.63;5062798;28;20061;-81
2021/04/24 02:10:34;;;;;;;35.60;10.65;;;;;;;-143.98;100.00;68091.63;5064118;28;20057;-81
2021/04/24 02:13:17;;;;;;;26.80;10.38;;;;;;;-143.98;100.00;68091.63;5044756;28;20143;-81
2021/04/24 02:15:44;;;;;;;28.98;10.98;;;;;;;-143.98;100.00;68091.63;5078984;28;20129;-81
2021/04/24 02:18:10;;;;;;;20.92;9.90;;;;;;;-143.98;100.00;68091.63;5078886;28;20052;-81
2021/04/24 02:20:39;;;;;;;36.05;10.90;;;;;;;-143.98;100.00;68091.63;5063144;28;20087;-81
2021/04/24 02:23:06;;;;;;;26.85;10.35;;;;;;;-143.98;100.00;68091.63;5088973;28;20051;-81
2021/04/24 02:25:32;;;;;;;24.48;9.57;;;;;;;-143.98;100.00;68091.63;5104127;28;20071;-81
2021/04/24 02:28:00;;;;;;;23.80;9.25;;;;;;;-143.98;100.00;68091.63;5121820;28;20054;-81
2021/04/24 02:30:31;;;;;;;25.35;10.35;;;;;;;-143.98;100.00;68091.63;5104179;28;20059;-81
2021/04/24 02:32:58;;;;;;;27.30;10.18;;;;;;;-143.98;100.00;68091.63;5086405;28;20056;-80
2021/04/24 02:35:54;;;;;;;25.67;9.27;;;;;;;-143.98;100.00;68091.63;5085902;28;20307;-81
2021/04/24 02:38:23;;;;;;;18.02;9.25;;;;;;;-143.98;100.00;68091.63;5104067;28;20316;-81
2021/04/24 02:40:57;;;;;;;22.45;9.25;;;;;;;-143.98;100.00;68091.63;5104878;28;20091;-81
2021/04/24 02:43:27;;;;;;;24.92;9.93;;;;;;;-143.98;100.00;68091.63;5104117;28;20107;-81
2021/04/24 02:45:53;;;;;;;25.67;9.60;;;;;;;-143.98;100.00;68091.63;5087525;28;20055;-81
2021/04/24 02:48:20;;;;;;;25.42;9.38;;;;;;;-143.98;100.00;68091.63;5087514;28;20124;-82
2021/04/24 02:50:47;;;;;;;23.52;9.65;;;;;;;-143.98;100.00;68091.63;5089976;28;20072;-81
2021/04/24 02:53:13;;;;;;;23.75;10.23;;;;;;;-143.98;100.00;68091.63;5104396;28;20093;-82
2021/04/24 02:55:41;;;;;;;24.95;9.77;;;;;;;-143.98;100.00;68091.63;5121387;28;20059;-81
2021/04/24 02:58:11;;;;;;;24.42;9.98;;;;;;;-143.98;100.00;68091.63;5103966;28;20146;-81
2021/04/24 03:00:38;;;;;;;23.23;8.43;;;;;;;-143.98;100.00;68091.63;5084935;28;20678;-81
2021/04/24 03:03:08;;;;;;;32.65;9.65;;;;;;;-143.98;100.00;68091.63;5088649;28;20104;-80
2021/04/24 03:05:35;;;;;;;15.82;8.90;;;;;;;-143.98;100.00;68091.63;5111198;28;20074;-80
2021/04/24 03:08:03;;;;;;;24.83;9.10;;;;;;;-143.98;100.00;68091.63;5096641;28;20082;-81
2021/04/24 03:10:30;;;;;;;17.27;8.82;;;;;;;-143.98;100.00;68091.63;5112523;28;20069;-80
2021/04/24 03:12:56;;;;;;;21.73;9.13;;;;;;;-143.98;100.00;68091.63;5100870;28;20292;-81
2021/04/24 03:15:24;;;;;;;32.58;9.85;;;;;;;-143.98;100.00;68091.63;5080386;28;20100;-80
2021/04/24 03:17:51;;;;;;;21.55;8.63;;;;;;;-143.98;100.00;68091.63;5084144;28;20118;-81
2021/04/24 03:20:18;;;;;;;20.30;9.35;;;;;;;-143.98;100.00;68091.63;5066827;28;20118;-80
2021/04/24 03:22:45;;;;;;;23.83;9.20;;;;;;;-143.98;100.00;68091.63;5101224;28;20062;-81
2021/04/24 03:25:12;;;;;;;21.02;8.32;;;;;;;-143.98;100.00;68091.63;5079170;28;20067;-80
2021/04/24 03:27:38;;;;;;;25.90;9.27;;;;;;;-143.98;100.00;68091.63;5064516;28;20056;-80
2021/04/24 03:30:06;;;;;;;19.90;9.57;;;;;;;-143.98;100.00;68091.63;5063132;28;20072;-80
2021/04/24 03:32:33;;;;;;;22.98;8.65;;;;;;;-143.98;100.00;68091.63;5079876;28;20064;-81
2021/04/24 03:34:59;;;;;;;22.73;9.38;;;;;;;-143.98;100.00;68091.63;5063538;28;20304;-81
2021/04/24 03:37:26;;;;;;;22.90;9.75;;;;;;;-143.98;100.00;68091.63;5080839;28;20064;-81
2021/04/24 03:39:53;;;;;;;28.02;9.88;;;;;;;-143.98;100.00;68091.63;5080124;28;20060;-81
2021/04/24 03:42:19;;;;;;;20.00;9.10;;;;;;;-143.98;100.00;68091.63;5081094;28;20071;-81
2021/04/24 03:44:46;;;;;;;23.77;9.43;;;;;;;-143.98;100.00;68091.63;5078804;28;20062;-81
2021/04/24 03:47:13;;;;;;;22.80;8.45;;;;;;;-143.98;100.00;68091.63;5080046;28;20144;-81
2021/04/24 03:49:40;;;;;;;22.13;8.73;;;;;;;-143.98;100.00;68091.63;5079135;28;20048;-81
2021/04/24 03:52:06;;;;;;;20.10;8.88;;;;;;;-143.98;100.00;68091.63;5080110;28;20072;-81
2021/04/24 03:54:32;;;;;;;21.02;9.35;;;;;;;-143.98;100.00;68091.63;5079426;28;20071;-82
2021/04/24 03:56:59;;;;;;;25.13;9.23;;;;;;;-143.98;100.00;68091.63;5077883;28;20056;-80
2021/04/24 03:59:25;;;;;;;22.35;9.10;;;;;;;-143.98;100.00;68091.63;5078401;28;20201;-80
2021/04/24 04:01:51;;;;;;;21.83;8.90;;;;;;;-143.98;100.00;68091.63;5076483;28;20825;-80
2021/04/24 04:04:18;;;;;;;25.42;9.07;;;;;;;-143.98;100.00;68091.63;5076067;28;20115;-81
2021/04/24 04:06:44;;;;;;;22.83;8.57;;;;;;;-143.98;100.00;68091.63;5077626;28;20056;-81
2021/04/24 04:09:10;;;;;;;19.88;9.45;;;;;;;-143.98;100.00;68091.63;5080551;28;20347;-81
2021/04/24 04:11:37;;;;;;;21.60;8.82;;;;;;;-143.98;100.00;68091.63;5093903;28;20056;-80
2021/04/24 04:14:06;;;;;;;25.02;8.93;;;;;;;-143.98;100.00;68091.63;5077340;28;20121;-81
2021/04/24 04:16:32;;;;;;;24.10;9.48;;;;;;;-143.98;100.00;68091.63;5077550;28;20064;-80
2021/04/24 04:18:59;;;;;;;28.08;9.23;;;;;;;-143.98;100.00;68091.63;5059726;28;20052;-80
2021/04/24 04:21:25;;;;;;;21.90;9.20;;;;;;;-143.98;100.00;68091.63;5077182;28;20060;-80
2021/04/24 04:23:54;;;;;;;24.52;9.40;;;;;;;-143.98;100.00;68091.63;5063711;28;20469;-80
2021/04/24 04:26:20;;;;;;;25.27;9.45;;;;;;;-143.98;100.00;68091.63;5079522;28;20244;-81
2021/04/24 04:28:51;;;;;;;32.97;10.35;;;;;;;-143.98;100.00;68091.63;5081804;28;20060;-80
2021/04/24 04:31:17;;;;;;;23.92;9.43;;;;;;;-143.98;100.00;68091.63;5092473;28;20110;-80
2021/04/24 04:33:43;;;;;;;22.58;9.30;;;;;;;-143.98;100.00;68091.63;5089031;28;20052;-80
2021/04/24 04:36:10;;;;;;;26.40;9.45;;;;;;;-143.98;100.00;68091.63;5093792;28;20052;-80
2021/04/24 04:38:36;;;;;;;26.45;8.90;;;;;;;-143.98;100.00;68091.63;5065622;28;20331;-80
2021/04/24 04:41:03;;;;;;;32.58;10.38;;;;;;;-143.98;100.00;68091.63;5058955;28;20440;-80
2021/04/24 04:43:29;;;;;;;25.88;9.52;;;;;;;-143.98;100.00;68091.63;5058882;28;20056;-80
2021/04/24 04:45:56;;;;;;;29.33;9.40;;;;;;;-143.98;100.00;68091.63;5067738;28;20059;-80
2021/04/24 04:48:22;;;;;;;27.17;9.73;;;;;;;-143.98;100.00;68091.63;5069484;28;20112;-81
2021/04/24 04:50:49;;;;;;;25.17;9.15;;;;;;;-143.98;100.00;68091.63;5064849;28;20060;-80
2021/04/24 04:53:15;;;;;;;26.60;10.05;;;;;;;-143.98;100.00;68091.63;5043221;28;20060;-81
2021/04/24 04:56:00;;;;;;;24.90;9.77;;;;;;;-143.98;100.00;68091.63;5072587;28;20067;-80
2021/04/24 04:58:26;;;;;;;23.58;9.75;;;;;;;-143.98;100.00;68091.63;5051134;28;20044;-80
2021/04/24 05:00:53;;;;;;;29.73;10.88;;;;;;;-143.98;100.00;68091.63;5067743;28;20053;-81
2021/04/24 05:03:19;;;;;;;20.65;9.82;;;;;;;-143.98;100.00;68091.63;5059080;28;20134;-80
2021/04/24 05:05:45;;;;;;;23.15;9.60;;;;;;;-143.98;100.00;68091.63;5042717;28;20049;-79
2021/04/24 05:08:11;;;;;;;23.38;9.43;;;;;;;-143.98;100.00;68091.63;5040589;28;20061;-80
2021/04/24 05:10:38;;;;;;;19.25;9.07;;;;;;;-143.98;100.00;68091.63;5043759;28;20056;-79
2021/04/24 05:13:04;;;;;;;26.60;9.82;;;;;;;-143.98;100.00;68091.63;5049825;28;20079;-80
2021/04/24 05:15:32;;;;;;;29.00;11.18;;;;;;;-143.98;100.00;68091.63;5053630;28;20079;-80
2021/04/24 05:17:58;;;;;;;28.80;10.18;;;;;;;-143.98;100.00;68091.63;5052981;28;20055;-80
2021/04/24 05:20:24;;;;;;;33.65;9.60;;;;;;;-143.98;100.00;68091.63;5069122;28;20044;-80
2021/04/24 05:22:51;;;;;;;28.38;10.45;;;;;;;-143.98;100.00;68091.63;5043914;28;20465;-80
2021/04/24 05:25:17;;;;;;;18.45;9.23;;;;;;;-143.98;100.00;68091.63;5075336;28;20060;-81
2021/04/24 05:27:47;;;;;;;19.20;9.75;;;;;;;-143.98;100.00;68091.63;5074924;28;20087;-80
2021/04/24 05:30:15;;;;;;;24.67;8.98;;;;;;;-143.98;100.00;68091.63;5059955;28;20116;-80
2021/04/24 05:32:42;;;;;;;18.70;8.50;;;;;;;-143.98;100.00;68091.63;5074199;28;20432;-81
2021/04/24 05:35:09;;;;;;;17.02;7.50;;;;;;;-143.98;100.00;68091.63;5072529;28;20396;-81
2021/04/24 05:37:35;;;;;;;22.75;9.15;;;;;;;-143.98;100.00;68091.63;5075622;28;20067;-80
2021/04/24 05:40:06;;;;;;;16.35;8.60;;;;;;;-143.98;100.00;68091.63;5073777;28;20052;-81
2021/04/24 05:42:34;;;;;;;19.42;8.38;;;;;;;-143.98;100.00;68091.63;5071702;28;20076;-81
2021/04/24 05:45:10;;;;;;;18.63;8.52;;;;;;;-143.98;100.00;68091.63;5055096;28;20087;-81
2021/04/24 05:47:45;;;;;;;18.30;8.80;;;;;;;-143.98;100.00;68091.63;5055826;28;20474;-81
2021/04/24 05:50:13;;;;;;;15.43;8.75;;;;;;;-143.98;100.00;68091.63;5055207;28;20061;-81
2021/04/24 05:52:40;;;;;;;18.70;7.85;;;;;;;-143.98;100.00;68091.63;5054944;28;20052;-81
2021/04/24 05:55:07;;;;;;;16.70;7.85;;;;;;;-143.98;100.00;68091.63;5054276;28;20053;-81
2021/04/24 05:57:34;;;;;;;16.63;8.02;;;;;;;-143.98;100.00;68091.63;5052914;28;20060;-81
2021/04/24 06:00:01;;;;;;;17.60;7.72;;;;;;;-143.98;100.00;68091.63;5052411;28;20052;-80
2021/04/24 06:02:30;;;;;;;18.23;7.18;;;;;;;-143.98;100.00;68091.63;5053395;28;20080;-81
2021/04/24 06:04:57;;;;;;;16.90;8.20;;;;;;;-143.98;100.00;68091.63;5054939;28;20114;-81
2021/04/24 06:07:33;;;;;;;16.40;7.72;;;;;;;-143.98;100.00;68091.63;5072947;28;20432;-82
2021/04/24 06:10:02;;;;;;;20.90;7.68;;;;;;;-143.98;100.00;68091.63;5087998;28;20056;-81
2021/04/24 06:12:29;;;;;;;22.63;8.30;;;;;;;-143.98;100.00;68091.63;5054785;28;20053;-81
2021/04/24 06:14:55;;;;;;;20.35;7.93;;;;;;;-143.98;100.00;68091.63;5056261;28;20056;-81
2021/04/24 06:17:25;;;;;;;18.52;7.05;;;;;;;-143.98;100.00;68091.63;5079229;28;20064;-80
2021/04/24 06:19:51;;;;;;;17.38;6.80;;;;;;;-143.98;100.00;68091.63;5084652;28;20107;-80
2021/04/24 06:22:19;;;;;;;13.77;6.65;;;;;;;-143.98;100.00;68091.63;5082285;28;20036;-80
2021/04/24 06:24:45;;;;;;;14.15;6.38;;;;;;;-143.98;100.00;68091.63;5096622;28;20079;-80
2021/04/24 06:27:12;;;;;;;13.98;6.85;;;;;;;-143.98;100.00;68091.63;5088949;28;20187;-80
2021/04/24 06:29:38;;;;;;;13.57;6.70;;;;;;;-143.98;100.00;68091.63;5122144;28;20055;-80
2021/04/24 06:32:05;;;;;;;17.48;6.47;;;;;;;-143.98;100.00;68091.63;5085785;28;20292;-80
2021/04/24 06:34:31;;;;;;;12.77;5.70;;;;;;;-143.98;100.00;68091.63;5102018;28;20104;-82
2021/04/24 06:36:57;;;;;;;11.80;5.95;;;;;;;-143.98;100.00;68091.63;5085397;28;20149;-81
2021/04/24 06:39:23;;;;;;;14.50;5.60;;;;;;;-143.98;100.00;68091.63;5102569;28;20048;-82
2021/04/24 06:41:49;;;;;;;11.70;5.18;;;;;;;-143.98;100.00;68091.63;5100307;28;20071;-81
2021/04/24 06:44:16;;;;;;;14.25;5.85;;;;;;;-143.98;100.00;68091.63;5085187;28;20059;-81
2021/04/24 06:46:43;;;;;;;12.73;5.63;;;;;;;-143.98;100.00;68091.63;5085055;28;20051;-81
2021/04/24 06:49:10;;;;;;;11.90;5.97;;;;;;;-143.98;100.00;68091.63;5084995;28;20059;-82
2021/04/24 06:51:37;;;;;;;12.68;6.63;;;;;;;-143.98;100.00;68091.63;5065246;28;20055;-82
2021/04/24 06:54:04;;;;;;;16.65;6.55;;;;;;;-143.98;100.00;68091.63;5080456;28;20121;-82
2021/04/24 06:56:34;;;;;;;12.95;5.45;;;;;;;-143.98;100.00;68091.63;5079734;28;20167;-82
2021/04/24 06:59:00;;;;;;;15.65;5.80;;;;;;;-143.98;100.00;68091.63;5081013;28;20106;-82
2021/04/24 07:01:26;;;;;;;14.90;6.03;;;;;;;-143.98;100.00;68091.63;5075859;28;20158;-82
2021/04/24 07:03:53;;;;;;;14.93;4.72;;;;;;;-143.98;100.00;68091.63;5091992;28;20062;-82
2021/04/24 07:06:19;;;;;;;13.90;5.15;;;;;;;-143.98;100.00;68091.63;5107150;28;20241;-82
2021/04/24 07:08:45;;;;;;;15.95;4.60;;;;;;;-143.98;100.00;68091.63;5066436;28;20062;-82
2021/04/24 07:11:11;;;;;;;17.95;5.50;;;;;;;-143.98;100.00;68091.63;5065854;28;20439;-82
2021/04/24 07:13:38;;;;;;;14.00;5.13;;;;;;;-143.98;100.00;68091.63;5079869;28;20143;-81
2021/04/24 07:16:06;;;;;;;13.25;4.43;;;;;;;-143.98;100.00;68091.63;5063901;28;20064;-83
2021/04/24 07:18:33;;;;;;;13.40;4.25;;;;;;;-143.98;100.00;68091.63;5062596;28;20081;-82
2021/04/24 07:20:59;;;;;;;10.48;4.65;;;;;;;-143.98;100.00;68091.63;5096760;28;20171;-82
2021/04/24 07:23:31;;;;;;;15.13;4.47;;;;;;;-143.98;100.00;68091.63;5062151;28;20194;-82
2021/04/24 07:26:00;;;;;;;16.27;4.53;;;;;;;-143.98;100.00;68091.63;5078418;28;20269;-82
2021/04/24 07:28:27;;;;;;;13.88;5.05;;;;;;;-143.98;100.00;68091.63;5079523;28;20274;-85
2021/04/24 07:30:56;;;;;;;13.48;4.40;;;;;;;-143.98;100.00;68091.63;5079754;28;20395;-82
2021/04/24 07:33:23;;;;;;;14.10;5.15;;;;;;;-143.98;100.00;68091.63;5099833;28;20154;-82
2021/04/24 07:35:53;;;;;;;13.75;4.13;;;;;;;-143.98;100.00;68091.63;5084592;28;20037;-82
2021/04/24 07:38:21;;;;;;;15.55;4.07;;;;;;;-143.98;100.00;68091.63;5087868;28;20056;-82
2021/04/24 07:40:51;;;;;;;13.75;3.50;;;;;;;-143.98;100.00;68091.63;5072281;28;20105;-82
2021/04/24 07:43:17;;;;;;;11.27;3.60;;;;;;;-143.98;100.00;68091.63;5089366;28;20056;-82
2021/04/24 07:45:44;;;;;;;9.88;3.70;;;;;;;-143.98;100.00;68091.63;5089073;28;20054;-82
2021/04/24 07:48:17;;;;;;;12.30;3.28;;;;;;;-143.98;100.00;68091.63;5091267;28;20071;-82
2021/04/24 07:50:48;;;;;;;9.88;3.30;;;;;;;-143.98;100.00;68091.63;5091625;28;20040;-81
2021/04/24 07:53:15;;;;;;;11.23;3.45;;;;;;;-143.98;100.00;68091.63;5074797;28;20089;-81
2021/04/24 07:55:42;;;;;;;12.93;3.40;;;;;;;-143.98;100.00;68091.63;5090950;28;20076;-81
2021/04/24 07:58:10;;;;;;;11.32;3.65;;;;;;;-143.98;100.00;68091.63;5074491;28;20265;-81
2021/04/24 08:00:36;;;;;;;8.40;2.60;;;;;;;-143.98;100.00;68091.63;5074439;28;20245;-81
2021/04/24 08:03:04;;;;;;;15.88;3.08;;;;;;;-143.98;100.00;68091.63;5073243;28;20090;-81
2021/04/24 08:05:33;;;;;;;12.23;3.78;;;;;;;-143.98;100.00;68091.63;5090795;28;20040;-81
2021/04/24 08:08:00;;;;;;;8.85;3.20;;;;;;;-143.98;100.00;68091.63;5073647;28;20051;-81
2021/04/24 08:10:27;;;;;;;10.43;3.88;;;;;;;-143.98;100.00;68091.63;5089490;28;20040;-81
2021/04/24 08:12:53;;;;;;;17.63;5.10;;;;;;;-143.98;100.00;68091.63;5078410;28;20032;-82
2021/04/24 08:15:20;;;;;;;13.55;3.20;;;;;;;-143.98;100.00;68091.63;5068150;28;20140;-83
2021/04/24 08:17:46;;;;;;;8.13;3.38;;;;;;;-143.98;100.00;68091.63;5064681;28;20087;-82
2021/04/24 08:20:14;;;;;;;9.65;3.53;;;;;;;-143.98;100.00;68091.63;5061534;28;20196;-82
2021/04/24 08:22:41;;;;;;;17.08;4.93;;;;;;;-143.98;100.00;68091.63;5046046;28;20060;-83
2021/04/24 08:25:09;;;;;;;17.92;4.10;;;;;;;-143.98;100.00;68091.63;5099487;28;20286;-83
2021/04/24 08:27:35;;;;;;;12.20;3.60;;;;;;;-143.98;100.00;68091.63;5067904;28;20052;-83
2021/04/24 08:30:05;;;;;;;13.23;3.65;;;;;;;-143.98;100.00;68091.63;5094851;28;20435;-83
2021/04/24 08:32:31;;;;;;;9.93;2.97;;;;;;;-143.98;100.00;68091.63;5078535;28;20231;-81
2021/04/24 08:35:01;;;;;;;8.48;2.42;;;;;;;-143.98;100.00;68091.63;5061892;28;20206;-83
2021/04/24 08:37:28;;;;;;;10.20;2.63;;;;;;;-143.98;100.00;68091.63;5073061;28;20091;-81
2021/04/24 08:39:55;;;;;;;11.70;2.88;;;;;;;-143.98;100.00;68091.63;5071751;28;20179;-81
2021/04/24 08:42:21;;;;;;;8.30;2.95;;;;;;;-143.98;100.00;68091.63;5060224;28;20252;-81
2021/04/24 08:44:51;;;;;;;15.43;3.55;;;;;;;-143.98;100.00;68091.63;5061612;28;20052;-81
2021/04/24 08:47:22;;;;;;;12.70;3.20;;;;;;;-143.98;100.00;68091.63;5036883;28;20082;-81
2021/04/24 08:49:53;;;;;;;11.25;2.72;;;;;;;-143.98;100.00;68091.63;5089535;28;20060;-80
2021/04/24 08:52:21;;;;;;;9.82;2.42;;;;;;;-143.98;100.00;68091.63;5084279;28;20055;-82
2021/04/24 08:54:49;;;;;;;9.25;2.95;;;;;;;-143.98;100.00;68091.63;5077562;28;20060;-83
2021/04/24 08:57:22;;;;;;;10.90;2.67;;;;;;;-143.98;100.00;68091.63;5073297;28;20045;-82
2021/04/24 08:59:48;;;;;;;13.45;2.47;;;;;;;-143.98;100.00;68091.63;5061617;28;20212;-82
2021/04/24 09:02:14;;;;;;;9.65;2.75;;;;;;;-143.98;100.00;68091.63;5095527;28;20299;-82
2021/04/24 09:04:40;;;;;;;10.95;3.38;;;;;;;-143.98;100.00;68091.63;5073405;28;20111;-82
2021/04/24 09:07:06;;;;;;;14.23;3.28;;;;;;;-143.98;100.00;68091.63;5076408;28;20102;-82
2021/04/24 09:09:33;;;;;;;11.45;3.35;;;;;;;-143.98;100.00;68091.63;5061706;28;20060;-82
2021/04/24 09:12:02;;;;;;;18.70;3.85;;;;;;;-143.98;100.00;68091.63;5081519;28;20131;-81
2021/04/24 09:14:33;;;;;;;21.90;3.17;;;;;;;-143.98;100.00;68091.63;5062038;28;20052;-82
2021/04/24 09:16:59;;;;;;;8.13;1.73;;;;;;;-143.98;100.00;68091.63;5061911;28;20094;-82
2021/04/24 09:19:26;;;;;;;11.73;2.47;;;;;;;-143.98;100.00;68091.63;5078061;28;20087;-82
2021/04/24 09:22:18;;;;;;;9.35;2.40;;;;;;;-143.98;100.00;68091.63;5080599;28;20052;-81
2021/04/24 09:24:46;;;;;;;11.27;2.65;;;;;;;-143.98;100.00;68091.63;5081487;28;20346;-81
2021/04/24 09:27:13;;;;;;;13.93;2.35;;;;;;;-143.98;100.00;68091.63;5098779;28;20063;-81
2021/04/24 09:30:21;;;;;;;10.07;2.20;;;;;;;-143.98;100.00;68091.63;5062149;28;20080;-82
2021/04/24 09:32:48;;;;;;;10.60;2.33;;;;;;;-143.98;100.00;68091.63;5060988;28;20136;-82
2021/04/24 09:35:21;;;;;;;12.77;2.72;;;;;;;-143.98;100.00;68091.63;5063008;28;20059;-81
2021/04/24 09:38:02;;;;;;;10.55;2.00;;;;;;;-143.98;100.00;68091.63;5078788;28;20094;-82
2021/04/24 09:41:00;;;;;;;11.15;2.35;;;;;;;-143.98;100.00;68091.63;5063062;28;20055;-80
2021/04/24 09:43:26;;;;;;;14.55;1.90;;;;;;;-143.98;100.00;68091.63;5062012;28;20058;-80
2021/04/24 09:45:56;;;;;;;9.98;2.03;;;;;;;-143.98;100.00;68091.63;5078511;28;20071;-83
2021/04/24 09:48:28;;;;;;;12.45;1.90;;;;;;;-143.98;100.00;68091.63;5059202;28;20079;-81
2021/04/24 09:50:54;;;;;;;10.18;1.77;;;;;;;-143.98;100.00;68091.63;5102160;28;20059;-81
2021/04/24 09:53:24;;;;;;;11.30;2.00;;;;;;;-143.98;100.00;68091.63;5067029;28;20062;-80
2021/04/24 09:55:52;;;;;;;8.45;2.05;;;;;;;-143.98;100.00;68091.63;5078669;28;20051;-81
2021/04/24 09:58:33;;;;;;;7.75;1.92;;;;;;;-143.98;100.00;68091.63;5085372;28;20071;-81
2021/04/24 10:01:20;;;;;;;9.75;2.17;;;;;;;-143.98;100.00;68091.63;5064097;28;20244;-81
2021/04/24 10:03:50;;;;;;;9.80;2.40;;;;;;;-143.98;100.00;68091.63;5060156;28;20056;-81
2021/04/24 10:06:40;;;;;;;7.20;2.05;;;;;;;-143.98;100.00;68091.63;5046388;28;20063;-80
2021/04/24 10:09:19;;;;;;;8.02;1.98;;;;;;;-143.98;100.00;68091.63;5043123;28;20541;-81
2021/04/24 10:12:02;;;;;;;12.45;2.13;;;;;;;-143.98;100.00;68091.63;5098911;28;20187;-81
2021/04/24 10:14:38;;;;;;;6.38;1.88;;;;;;;-143.98;100.00;68091.63;5104823;28;20068;-82
2021/04/24 10:17:25;;;;;;;8.02;1.77;;;;;;;-143.98;100.00;68091.63;5101661;28;20125;-80
2021/04/24 10:19:52;;;;;;;8.70;1.52;;;;;;;-143.98;100.00;68091.63;5079900;28;20052;-80
2021/04/24 10:22:23;;;;;;;8.25;1.75;;;;;;;26.03;17.37;102674.13;5065972;28;20075;-81
2021/04/24 10:24:52;;;;;;;8.55;2.08;;;;;;;26.69;16.24;102676.78;5081093;28;20256;-81
2021/04/24 10:27:20;;;;;;;7.20;1.88;;;;;;;26.76;16.16;102671.06;5069487;28;20063;-79
2021/04/24 10:29:47;;;;;;;5.00;1.42;;;;;;;26.53;16.71;102672.63;5108696;28;20051;-81
2021/04/24 10:32:17;;;;;;;5.93;1.90;;;;;;;26.48;16.62;102680.84;5079810;28;20035;-81
2021/04/24 10:34:45;;;;;;;7.22;1.30;;;;;;;27.45;15.56;102673.28;5092013;28;20170;-83
2021/04/24 10:37:12;;;;;;;13.18;1.80;;;;;;;29.27;14.30;102680.03;5091399;28;20052;-81
2021/04/24 10:39:40;;;;;;;7.50;1.30;;;;;;;31.29;12.25;102671.25;5109320;28;20081;-82
2021/04/24 10:42:19;;;;;;;10.45;1.77;;;;;;;33.08;10.89;102667.31;5092597;28;20056;-82
2021/04/24 10:44:58;;;;;;;4.05;1.20;;;;;;;34.56;9.86;102660.69;5091691;28;20044;-82
2021/04/24 10:47:55;;;;;;;11.45;1.83;;;;;;;35.06;9.32;102649.25;5058535;28;20059;-81
2021/04/24 10:50:51;;;;;;;6.53;1.38;;;;;;;36.18;8.50;102651.50;5044594;28;20088;-81
2021/04/24 10:53:21;;;;;;;4.47;1.02;;;;;;;36.13;8.58;102661.06;5075463;28;20052;-81
2021/04/24 10:55:48;;;;;;;6.35;0.90;;;;;;;36.72;8.17;102657.13;5086377;28;20056;-81
2021/04/24 10:58:19;;;;;;;9.43;1.13;;;;;;;36.18;8.15;102648.81;5089631;28;20259;-81
2021/04/24 11:00:48;;;;;;;5.78;1.42;;;;;;;36.81;8.26;102649.88;5087751;28;20035;-81
2021/04/24 11:03:42;;;;;;;12.25;3.05;;;;;;;36.10;8.38;102646.13;5103230;28;20164;-80
2021/04/24 11:06:13;;;;;;;4.47;1.55;;;;;;;35.58;8.95;102635.72;5053846;28;20056;-81
2021/04/24 11:08:51;;;;;;;7.63;1.33;;;;;;;36.09;8.70;102644.47;5101723;28;20065;-81
2021/04/24 11:11:19;;;;;;;11.57;1.25;;;;;;;35.78;9.44;102639.75;5079609;28;20056;-82